createdAt,value
2022-10-23T00:00:24.745Z,27.30
2022-10-23T00:02:56.810Z,21.50
2022-10-23T00:05:28.818Z,23.60
2022-10-23T00:08:01.615Z,21.20
2022-10-23T00:10:32.618Z,25.60
2022-10-23T00:13:03.993Z,22.90
2022-10-23T00:15:37.584Z,26.70
2022-10-23T00:18:08.640Z,25.70
2022-10-23T00:20:39.515Z,23.50
2022-10-23T00:23:10.498Z,23.50
2022-10-23T00:25:41.508Z,24.60
2022-10-23T00:28:13.115Z,28.70
2022-10-23T00:30:44.076Z,22.00
2022-10-23T00:33:14.902Z,20.80
2022-10-23T00:35:45.752Z,21.00
2022-10-23T00:38:16.661Z,22.60
2022-10-23T00:40:47.748Z,23.30
2022-10-23T00:43:23.572Z,23.50
2022-10-23T00:45:55.351Z,24.20
2022-10-23T00:48:27.204Z,22.30
2022-10-23T00:50:58.213Z,24.90
2022-10-23T00:53:29.619Z,24.90
2022-10-23T00:56:03.281Z,23.70
2022-10-23T00:58:34.653Z,23.70
2022-10-23T01:01:17.184Z,23.10
2022-10-23T01:03:48.909Z,25.90
2022-10-23T01:06:28.761Z,23.00
2022-10-23T01:09:08.085Z,26.60
2022-10-23T01:11:47.113Z,27.40
2022-10-23T01:14:27.831Z,30.70
2022-10-23T01:17:07.251Z,28.50
2022-10-23T01:19:56.082Z,28.50
2022-10-23T01:22:48.229Z,26.20
2022-10-23T01:25:31.133Z,28.20
2022-10-23T01:28:06.362Z,33.30
2022-10-23T01:33:24.455Z,33.00
2022-10-23T01:36:02.868Z,28.50
2022-10-23T01:38:40.591Z,36.10
2022-10-23T01:41:29.514Z,35.30
2022-10-23T01:44:06.437Z,35.70
2022-10-23T01:46:40.900Z,30.30
2022-10-23T01:49:15.423Z,31.40
2022-10-23T01:51:54.022Z,33.30
2022-10-23T01:54:30.720Z,32.50
2022-10-23T01:57:05.757Z,33.90
2022-10-23T02:02:12.890Z,35.30
2022-10-23T02:04:52.477Z,30.90
2022-10-23T02:07:23.731Z,28.60
2022-10-23T02:09:55.058Z,33.30
2022-10-23T02:12:37.972Z,36.30
2022-10-23T02:15:15.370Z,32.50
2022-10-23T02:17:56.820Z,34.10
2022-10-23T02:20:36.991Z,31.20
2022-10-23T02:23:20.518Z,32.10
2022-10-23T02:25:57.998Z,41.20
2022-10-23T02:28:35.300Z,35.60
2022-10-23T02:31:09.845Z,30.90
2022-10-23T02:33:40.864Z,36.40
2022-10-23T02:36:13.100Z,32.70
2022-10-23T02:38:45.458Z,38.40
2022-10-23T02:41:33.075Z,36.00
2022-10-23T02:44:16.061Z,45.50
2022-10-23T02:46:57.572Z,33.20
2022-10-23T02:49:36.970Z,38.00
2022-10-23T02:52:17.401Z,40.50
2022-10-23T02:55:11.124Z,33.20
2022-10-23T02:57:58.942Z,34.10
2022-10-23T03:00:34.319Z,38.90
2022-10-23T03:05:40.694Z,42.60
2022-10-23T03:08:13.659Z,39.50
2022-10-23T03:10:45.774Z,35.80
2022-10-23T03:13:18.079Z,33.70
2022-10-23T03:15:48.984Z,38.10
2022-10-23T03:18:19.874Z,37.10
2022-10-23T03:20:53.692Z,45.50
2022-10-23T03:23:26.243Z,45.50
2022-10-23T03:25:57.302Z,49.30
2022-10-23T03:28:36.341Z,39.40
2022-10-23T03:31:07.481Z,39.20
2022-10-23T03:33:38.615Z,38.70
2022-10-23T03:36:14.587Z,41.70
2022-10-23T03:38:47.436Z,37.70
2022-10-23T03:41:18.441Z,37.80
2022-10-23T03:43:49.497Z,37.90
2022-10-23T03:46:20.397Z,38.70
2022-10-23T03:48:58.282Z,35.90
2022-10-23T03:51:29.601Z,34.00
2022-10-23T03:54:01.926Z,37.10
2022-10-23T03:56:33.018Z,34.00
2022-10-23T03:59:04.138Z,39.10
2022-10-23T04:01:35.386Z,39.80
2022-10-23T04:04:06.329Z,40.80
2022-10-23T04:06:37.588Z,36.40
2022-10-23T04:09:09.098Z,37.90
2022-10-23T04:11:43.001Z,37.50
2022-10-23T04:14:16.024Z,37.40
2022-10-23T04:16:46.841Z,36.70
2022-10-23T04:19:18.657Z,42.10
2022-10-23T04:21:49.780Z,34.20
2022-10-23T04:24:20.845Z,40.00
2022-10-23T04:26:51.777Z,45.60
2022-10-23T04:29:24.678Z,38.60
2022-10-23T04:31:55.573Z,36.00
2022-10-23T04:34:26.652Z,35.40
2022-10-23T04:36:58.137Z,33.20
2022-10-23T04:39:28.968Z,34.00
2022-10-23T04:41:59.878Z,35.40
2022-10-23T04:44:30.864Z,32.90
2022-10-23T04:47:01.890Z,36.50
2022-10-23T04:49:33.004Z,35.30
2022-10-23T04:52:16.055Z,33.80
2022-10-23T04:54:57.209Z,35.80
2022-10-23T04:57:37.060Z,31.10
2022-10-23T05:00:14.697Z,37.30
2022-10-23T05:02:53.621Z,41.40
2022-10-23T05:05:25.406Z,33.90
2022-10-23T05:08:14.228Z,38.80
2022-10-23T05:11:11.480Z,39.00
2022-10-23T05:13:47.160Z,37.90
2022-10-23T05:16:37.503Z,37.70
2022-10-23T05:19:11.889Z,36.90
2022-10-23T05:21:46.483Z,41.70
2022-10-23T05:24:18.543Z,34.00
2022-10-23T05:26:59.294Z,38.70
2022-10-23T05:29:30.193Z,38.50
2022-10-23T05:32:07.077Z,42.80
2022-10-23T05:34:39.817Z,40.60
2022-10-23T05:37:15.335Z,41.90
2022-10-23T05:39:46.637Z,43.30
2022-10-23T05:42:20.728Z,36.60
2022-10-23T05:44:51.994Z,38.80
2022-10-23T05:47:47.685Z,45.40
2022-10-23T05:50:47.655Z,41.60
2022-10-23T05:53:30.033Z,43.90
2022-10-23T05:56:26.943Z,43.50
2022-10-23T05:59:05.362Z,41.30
2022-10-23T06:01:54.590Z,39.40
2022-10-23T06:04:34.981Z,33.90
2022-10-23T06:07:29.179Z,40.30
2022-10-23T06:10:02.209Z,38.40
2022-10-23T06:12:34.254Z,40.20
2022-10-23T06:15:06.277Z,39.70
2022-10-23T06:17:54.106Z,31.40
2022-10-23T06:20:27.881Z,36.10
2022-10-23T06:23:08.498Z,38.30
2022-10-23T06:25:59.719Z,39.80
2022-10-23T06:28:37.367Z,38.80
2022-10-23T06:31:09.807Z,36.70
2022-10-23T06:33:40.928Z,35.80
2022-10-23T06:36:13.025Z,41.00
2022-10-23T06:38:45.468Z,31.70
2022-10-23T06:41:20.739Z,33.80
2022-10-23T06:43:56.702Z,27.90
2022-10-23T06:46:33.272Z,39.50
2022-10-23T06:49:24.690Z,28.80
2022-10-23T06:51:57.548Z,32.30
2022-10-23T06:54:28.553Z,33.20
2022-10-23T06:57:15.135Z,30.40
2022-10-23T06:59:49.419Z,30.50
2022-10-23T07:02:20.478Z,31.30
2022-10-23T07:04:52.196Z,32.50
2022-10-23T07:07:23.857Z,31.00
2022-10-23T07:09:54.892Z,33.70
2022-10-23T07:12:32.260Z,27.60
2022-10-23T07:15:25.938Z,36.90
2022-10-23T07:17:57.508Z,32.50
2022-10-23T07:20:29.188Z,29.50
2022-10-23T07:23:00.144Z,29.50
2022-10-23T07:25:35.919Z,38.40
2022-10-23T07:28:09.801Z,38.30
2022-10-23T07:30:41.641Z,32.80
2022-10-23T07:33:14.863Z,30.30
2022-10-23T07:35:58.445Z,29.20
2022-10-23T07:38:32.206Z,28.10
2022-10-23T07:41:05.835Z,32.10
2022-10-23T07:43:39.080Z,34.60
2022-10-23T07:46:10.618Z,29.30
2022-10-23T07:48:43.736Z,36.80
2022-10-23T07:51:17.024Z,36.10
2022-10-23T07:53:49.875Z,34.70
2022-10-23T07:56:31.652Z,37.60
2022-10-23T07:59:24.761Z,38.50
2022-10-23T08:01:57.794Z,31.40
2022-10-23T08:04:33.668Z,32.30
2022-10-23T08:07:19.136Z,39.30
2022-10-23T08:09:51.332Z,29.50
2022-10-23T08:12:22.323Z,30.60
2022-10-23T08:14:58.119Z,29.30
2022-10-23T08:17:30.455Z,25.40
2022-10-23T08:20:15.320Z,43.10
2022-10-23T08:22:47.634Z,29.70
2022-10-23T08:25:25.102Z,32.80
2022-10-23T08:27:56.949Z,31.60
2022-10-23T08:30:28.134Z,28.90
2022-10-23T08:32:59.328Z,36.40
2022-10-23T08:35:30.194Z,28.90
2022-10-23T08:38:01.391Z,34.70
2022-10-23T08:40:34.216Z,29.70
2022-10-23T08:43:40.078Z,30.80
2022-10-23T08:46:29.974Z,31.10
2022-10-23T08:49:41.563Z,30.10
2022-10-23T08:52:21.611Z,27.30
2022-10-23T08:55:18.080Z,28.20
2022-10-23T08:57:54.525Z,33.60
2022-10-23T09:00:25.464Z,31.80
2022-10-23T09:02:57.016Z,32.80
2022-10-23T09:05:32.524Z,45.50
2022-10-23T09:08:22.728Z,34.60
2022-10-23T09:11:05.333Z,29.80
2022-10-23T09:14:06.184Z,40.80
2022-10-23T09:16:50.640Z,36.90
2022-10-23T09:19:27.114Z,38.50
2022-10-23T09:21:59.085Z,31.60
2022-10-23T09:24:31.838Z,41.10
2022-10-23T09:29:36.186Z,28.10
2022-10-23T09:32:08.889Z,27.30
2022-10-23T09:34:50.767Z,33.80
2022-10-23T09:37:25.513Z,33.30
2022-10-23T09:40:15.642Z,41.20
2022-10-23T09:42:56.926Z,28.80
2022-10-23T09:45:31.659Z,36.90
2022-10-23T09:50:57.633Z,27.90
2022-10-23T09:53:34.038Z,25.90
2022-10-23T09:56:11.955Z,28.50
2022-10-23T09:58:54.967Z,31.50
2022-10-23T10:01:30.772Z,30.80
2022-10-23T10:04:15.435Z,29.00
2022-10-23T10:06:46.904Z,33.20
2022-10-23T10:09:19.360Z,32.60
2022-10-23T10:11:55.292Z,31.70
2022-10-23T10:14:46.952Z,31.30
2022-10-23T10:17:28.946Z,24.40
2022-10-23T10:20:29.915Z,31.70
2022-10-23T10:23:05.967Z,27.00
2022-10-23T10:25:45.712Z,30.10
2022-10-23T10:28:32.240Z,22.80
2022-10-23T10:31:16.587Z,28.50
2022-10-23T10:33:58.217Z,30.50
2022-10-23T10:36:42.475Z,24.40
2022-10-23T10:39:26.778Z,25.60
2022-10-23T10:42:08.789Z,22.50
2022-10-23T10:44:51.502Z,19.30
2022-10-23T10:47:29.904Z,22.60
2022-10-23T10:50:16.159Z,23.40
2022-10-23T10:53:19.512Z,30.40
2022-10-23T10:55:54.930Z,20.00
2022-10-23T10:58:33.235Z,22.00
2022-10-23T11:01:12.371Z,16.60
2022-10-23T11:03:49.990Z,20.80
2022-10-23T11:06:28.419Z,20.70
2022-10-23T11:09:19.419Z,20.10
2022-10-23T11:11:52.132Z,14.40
2022-10-23T11:14:25.500Z,19.10
2022-10-23T11:17:03.244Z,23.80
2022-10-23T11:19:41.224Z,17.10
2022-10-23T11:22:19.430Z,23.80
2022-10-23T11:25:26.991Z,21.00
2022-10-23T11:28:21.341Z,17.70
2022-10-23T11:31:11.897Z,21.00
2022-10-23T11:34:02.955Z,17.60
2022-10-23T11:36:45.656Z,17.20
2022-10-23T11:39:23.026Z,19.00
2022-10-23T11:42:16.574Z,17.10
2022-10-23T11:44:49.606Z,17.20
2022-10-23T11:47:38.840Z,23.10
2022-10-23T11:50:29.927Z,17.00
2022-10-23T11:53:15.225Z,27.80
2022-10-23T11:56:05.377Z,29.00
2022-10-23T11:58:48.317Z,17.30
2022-10-23T12:01:32.315Z,19.50
2022-10-23T12:04:15.424Z,14.50
2022-10-23T12:06:49.014Z,16.60
2022-10-23T12:09:38.818Z,17.60
2022-10-23T12:12:29.385Z,16.70
2022-10-23T12:15:24.345Z,15.90
2022-10-23T12:17:56.780Z,19.90
2022-10-23T12:20:45.986Z,20.20
2022-10-23T12:23:35.071Z,16.10
2022-10-23T12:26:34.373Z,21.70
2022-10-23T12:29:20.200Z,16.90
2022-10-23T12:32:00.840Z,18.20
2022-10-23T12:34:46.484Z,19.40
2022-10-23T12:37:42.278Z,18.80
2022-10-23T12:42:53.776Z,25.10
2022-10-23T12:45:27.299Z,20.50
2022-10-23T12:47:58.457Z,18.30
2022-10-23T12:50:31.373Z,21.10
2022-10-23T12:53:04.489Z,17.30
2022-10-23T12:55:52.807Z,26.50
2022-10-23T12:58:27.338Z,21.00
2022-10-23T13:01:02.031Z,15.90
2022-10-23T13:03:35.302Z,18.60
2022-10-23T13:06:06.930Z,18.30
2022-10-23T13:08:42.992Z,23.00
2022-10-23T13:11:29.347Z,22.90
2022-10-23T13:14:02.115Z,16.90
2022-10-23T13:16:32.914Z,16.90
2022-10-23T13:19:03.765Z,18.70
2022-10-23T13:21:36.083Z,22.70
2022-10-23T13:24:19.034Z,25.40
2022-10-23T13:26:50.038Z,19.70
2022-10-23T13:31:56.273Z,17.10
2022-10-23T13:34:29.570Z,19.20
2022-10-23T13:37:05.863Z,19.80
2022-10-23T13:39:36.875Z,21.60
2022-10-23T13:42:15.891Z,27.20
2022-10-23T13:44:47.427Z,27.90
2022-10-23T13:47:18.817Z,31.10
2022-10-23T13:49:49.972Z,18.00
2022-10-23T13:52:24.595Z,18.50
2022-10-23T13:54:55.509Z,19.80
2022-10-23T13:57:27.124Z,25.00
2022-10-23T13:59:58.009Z,23.70
2022-10-23T14:02:29.541Z,18.70
2022-10-23T14:05:00.496Z,19.90
2022-10-23T14:07:31.409Z,19.90
2022-10-23T14:10:02.353Z,31.20
2022-10-23T14:12:39.362Z,24.00
2022-10-23T14:15:12.772Z,23.20
2022-10-23T14:17:43.665Z,23.80
2022-10-23T14:20:17.264Z,20.70
2022-10-23T14:22:49.347Z,24.20
2022-10-23T14:25:20.314Z,16.30
2022-10-23T14:27:51.361Z,18.10
2022-10-23T14:30:22.208Z,18.10
2022-10-23T14:32:53.298Z,21.50
2022-10-23T14:35:25.717Z,11.40
2022-10-23T14:37:57.997Z,18.70
2022-10-23T14:40:28.966Z,18.30
2022-10-23T14:42:59.917Z,19.00
2022-10-23T14:45:30.898Z,14.20
2022-10-23T14:48:03.002Z,16.10
2022-10-23T14:50:35.745Z,18.90
2022-10-23T14:53:09.916Z,16.90
2022-10-23T14:55:41.265Z,16.50
2022-10-23T14:58:12.309Z,22.10
2022-10-23T15:00:43.170Z,16.30
2022-10-23T15:03:16.735Z,19.80
2022-10-23T15:05:47.545Z,16.40
2022-10-23T15:08:18.407Z,17.80
2022-10-23T15:10:49.217Z,18.10
2022-10-23T15:13:20.275Z,18.60
2022-10-23T15:15:51.173Z,18.90
2022-10-23T15:18:22.450Z,16.40
2022-10-23T15:20:56.042Z,18.10
2022-10-23T15:23:27.097Z,16.50
2022-10-23T15:26:04.341Z,18.40
2022-10-23T15:28:35.730Z,15.50
2022-10-23T15:31:22.948Z,16.70
2022-10-23T15:33:55.984Z,15.40
2022-10-23T15:36:27.469Z,16.60
2022-10-23T15:38:58.477Z,13.40
2022-10-23T15:41:31.927Z,14.70
2022-10-23T15:44:04.297Z,16.00
2022-10-23T15:46:35.719Z,17.30
2022-10-23T15:49:08.532Z,16.20
2022-10-23T15:51:40.477Z,19.80
2022-10-23T15:54:17.169Z,17.00
2022-10-23T15:56:49.028Z,18.40
2022-10-23T15:59:20.596Z,21.00
2022-10-23T16:01:52.488Z,15.80
2022-10-23T16:04:23.578Z,18.80
2022-10-23T16:06:54.443Z,18.00
2022-10-23T16:09:25.361Z,18.10
2022-10-23T16:11:56.325Z,19.00
2022-10-23T16:14:27.601Z,19.90
2022-10-23T16:16:58.506Z,26.70
2022-10-23T16:19:29.384Z,20.00
2022-10-23T16:22:04.290Z,19.40
2022-10-23T16:24:35.622Z,18.50
2022-10-23T16:27:06.602Z,20.20
2022-10-23T16:29:37.882Z,16.60
2022-10-23T16:32:09.131Z,16.70
2022-10-23T16:34:40.707Z,17.70
2022-10-23T16:37:11.948Z,16.00
2022-10-23T16:39:53.187Z,17.00
2022-10-23T16:42:43.084Z,24.00
2022-10-23T16:45:18.200Z,22.30
2022-10-23T16:47:49.101Z,19.80
2022-10-23T16:50:20.170Z,17.10
2022-10-23T16:52:53.368Z,18.80
2022-10-23T16:55:26.712Z,20.90
2022-10-23T16:58:00.733Z,17.50
2022-10-23T17:00:35.321Z,16.50
2022-10-23T17:03:07.824Z,19.10
2022-10-23T17:05:39.198Z,19.90
2022-10-23T17:08:10.296Z,19.80
2022-10-23T17:10:42.078Z,20.30
2022-10-23T17:13:13.011Z,19.70
2022-10-23T17:15:43.990Z,23.40
2022-10-23T17:18:15.148Z,20.00
2022-10-23T17:20:46.071Z,17.80
2022-10-23T17:23:17.101Z,22.00
2022-10-23T17:25:50.107Z,22.00
2022-10-23T17:28:21.105Z,22.80
2022-10-23T17:30:52.090Z,22.80
2022-10-23T17:33:22.981Z,22.70
2022-10-23T17:35:54.685Z,22.30
2022-10-23T17:38:26.702Z,22.60
2022-10-23T17:40:57.550Z,18.70
2022-10-23T17:43:28.424Z,26.70
2022-10-23T17:45:59.523Z,23.60
2022-10-23T17:48:30.486Z,21.90
2022-10-23T17:51:06.730Z,21.00
2022-10-23T17:53:39.156Z,24.40
2022-10-23T17:56:13.325Z,22.40
2022-10-23T17:58:44.153Z,19.40
2022-10-23T18:01:17.742Z,22.40
2022-10-23T18:03:48.906Z,23.50
2022-10-23T18:06:24.544Z,21.20
2022-10-23T18:08:58.327Z,23.50
2022-10-23T18:11:31.391Z,20.80
2022-10-23T18:14:03.274Z,26.90
2022-10-23T18:16:34.716Z,27.00
2022-10-23T18:19:06.832Z,28.50
2022-10-23T18:21:38.095Z,29.50
2022-10-23T18:24:11.597Z,26.00
2022-10-23T18:26:44.234Z,24.40
2022-10-23T18:29:18.620Z,24.20
2022-10-23T18:31:50.779Z,22.40
2022-10-23T18:34:23.977Z,21.00
2022-10-23T18:36:56.181Z,19.50
2022-10-23T18:39:30.441Z,21.90
2022-10-23T18:42:01.621Z,20.00
2022-10-23T18:44:32.587Z,25.40
2022-10-23T18:47:03.557Z,20.60
2022-10-23T18:49:34.729Z,29.50
2022-10-23T18:52:06.098Z,23.40
2022-10-23T18:54:36.998Z,26.30
2022-10-23T18:57:07.888Z,21.80
2022-10-23T18:59:38.912Z,30.80
2022-10-23T19:02:11.345Z,26.10
2022-10-23T19:04:42.554Z,31.40
2022-10-23T19:07:13.594Z,22.70
2022-10-23T19:09:44.436Z,24.10
2022-10-23T19:12:17.704Z,23.80
2022-10-23T19:14:48.881Z,31.10
2022-10-23T19:17:26.170Z,29.10
2022-10-23T19:20:01.488Z,38.50
2022-10-23T19:22:35.927Z,29.80
2022-10-23T19:25:12.825Z,27.00
2022-10-23T19:27:47.074Z,26.70
2022-10-23T19:30:22.570Z,24.00
2022-10-23T19:32:55.568Z,28.10
2022-10-23T19:35:26.397Z,27.10
2022-10-23T19:37:57.180Z,23.40
2022-10-23T19:40:28.425Z,24.10
2022-10-23T19:43:00.343Z,24.40
2022-10-23T19:48:07.670Z,30.10
2022-10-23T19:50:38.991Z,32.40
2022-10-23T19:53:12.086Z,26.60
2022-10-23T19:55:43.279Z,35.90
2022-10-23T19:58:18.970Z,35.60
2022-10-23T20:00:51.972Z,30.60
2022-10-23T20:03:23.392Z,29.70
2022-10-23T20:06:01.097Z,40.70
2022-10-23T20:08:34.998Z,49.00
2022-10-23T20:11:06.946Z,39.50
2022-10-23T20:13:38.946Z,42.20
2022-10-23T20:16:17.265Z,37.00
2022-10-23T20:18:49.525Z,35.80
2022-10-23T20:21:21.448Z,35.80
2022-10-23T20:24:02.797Z,39.40
2022-10-23T20:26:33.938Z,36.40
2022-10-23T20:29:05.728Z,39.30
2022-10-23T20:31:39.603Z,32.60
2022-10-23T20:34:11.321Z,37.00
2022-10-23T20:36:46.670Z,40.50
2022-10-23T20:39:21.959Z,33.50
2022-10-23T20:42:01.569Z,38.40
2022-10-23T20:44:34.083Z,40.20
2022-10-23T20:47:04.994Z,43.80
2022-10-23T20:49:36.351Z,42.20
2022-10-23T20:52:07.465Z,46.70
2022-10-23T20:54:38.484Z,48.80
2022-10-23T20:57:17.971Z,44.80
2022-10-23T20:59:53.932Z,51.30
2022-10-23T21:02:38.344Z,49.70
2022-10-23T21:05:14.445Z,43.30
2022-10-23T21:07:49.375Z,35.90
2022-10-23T21:10:23.737Z,40.40
2022-10-23T21:12:54.848Z,44.40
2022-10-23T21:15:26.425Z,44.70
2022-10-23T21:18:04.009Z,44.00
2022-10-23T21:20:49.299Z,44.50
2022-10-23T21:23:20.695Z,44.10
2022-10-23T21:25:57.093Z,57.20
2022-10-23T21:28:28.551Z,40.80
2022-10-23T21:31:07.948Z,45.10
2022-10-23T21:33:43.867Z,45.40
2022-10-23T21:36:17.501Z,48.30
2022-10-23T21:38:50.321Z,48.20
2022-10-23T21:41:25.319Z,46.30
2022-10-23T21:43:58.305Z,42.10
2022-10-23T21:46:31.158Z,49.50
2022-10-23T21:49:04.559Z,43.10
2022-10-23T21:51:38.211Z,45.90
2022-10-23T21:54:13.350Z,46.50
2022-10-23T21:59:21.252Z,43.40
2022-10-23T22:01:53.234Z,43.40
2022-10-23T22:04:25.513Z,42.90
2022-10-23T22:06:56.618Z,36.40
2022-10-23T22:09:27.650Z,42.90
2022-10-23T22:12:00.287Z,45.60
2022-10-23T22:14:36.561Z,39.30
2022-10-23T22:17:09.412Z,41.60
2022-10-23T22:19:41.901Z,43.90
2022-10-23T22:22:13.096Z,37.70
2022-10-23T22:24:44.172Z,44.10
2022-10-23T22:27:17.009Z,39.80
2022-10-23T22:29:48.301Z,41.70
2022-10-23T22:32:19.135Z,48.50
2022-10-23T22:34:53.075Z,41.10
2022-10-23T22:37:24.448Z,41.10
2022-10-23T22:39:56.904Z,38.70
2022-10-23T22:42:27.823Z,40.80
2022-10-23T22:44:58.741Z,45.00
2022-10-23T22:47:31.799Z,41.40
2022-10-23T22:50:02.643Z,38.20
2022-10-23T22:52:34.238Z,40.20
2022-10-23T22:55:06.252Z,38.60
2022-10-23T22:57:37.913Z,40.50
2022-10-23T23:00:11.512Z,42.30
2022-10-23T23:02:42.434Z,41.90
2022-10-23T23:05:14.718Z,39.70
2022-10-23T23:07:45.850Z,44.80
2022-10-23T23:10:16.893Z,36.50
2022-10-23T23:12:47.728Z,36.60
2022-10-23T23:15:20.713Z,37.60
2022-10-23T23:17:51.921Z,45.50
2022-10-23T23:20:23.430Z,39.30
2022-10-23T23:22:55.558Z,37.10
2022-10-23T23:25:26.441Z,37.80
2022-10-23T23:27:57.542Z,32.90
2022-10-23T23:30:28.667Z,33.10
2022-10-23T23:32:59.681Z,35.80
2022-10-23T23:35:30.578Z,35.70
2022-10-23T23:38:01.583Z,37.00
2022-10-23T23:40:32.486Z,38.70
2022-10-23T23:43:03.716Z,34.60
2022-10-23T23:45:35.054Z,37.20
2022-10-23T23:48:06.098Z,40.50
2022-10-23T23:50:37.037Z,32.20
2022-10-23T23:53:07.916Z,35.00
2022-10-23T23:55:39.199Z,41.10
2022-10-23T23:58:10.504Z,29.80
